• Join FlightAware (Why Join?)
  • Login
  • US Flag 
03:52AM EDT


 

Airport Tracker/Info


-or-


 

Live Flight TrackerFlight Track Log ✈ AFR1068 ✈ 21-Apr-2013 ✈ LFPG / CDG - EGCC / MAN

Flight Track Log - Related Links

Times and Time Zones

All times are in EDT time to prevent confusion due to time zone crossing. See the AFR1068 flight status page for this flight to view local times or setup timezone preferences in your user account.

Time Position Orientation Groundspeed Altitude Reporting Facility
EDT Latitude Longitude Course Direction KTS MPH feet Rate Location/Type
07:22AM 49.1770 2.3867 327° Northwest  Level Estimated
07:23AM 49.2324 2.3313 327° Northwest  Level Estimated
07:24AM 49.2878 2.2758 327° Northwest  Level Estimated
07:25AM 49.3431 2.2202 327° Northwest  Level Estimated
07:26AM 49.3984 2.1645 327° Northwest  Level Estimated
07:27AM 49.4536 2.1086 327° Northwest  Level Estimated
07:28AM 49.5089 2.0526 327° Northwest  Level Estimated
07:29AM 49.5641 1.9965 327° Northwest  Level Estimated
07:30AM 49.6193 1.9403 327° Northwest  Level Estimated
07:31AM 49.6744 1.8839 327° Northwest  Level Estimated
07:32AM 49.7296 1.8274 326° Northwest  Level Estimated
07:33AM 49.7847 1.7708 326° Northwest  Level Estimated
07:34AM 49.8398 1.7141 326° Northwest  Level Estimated
07:35AM 49.8948 1.6572 326° Northwest  Level Estimated
07:36AM 49.9498 1.6002 326° Northwest  Level Estimated
07:37AM 50.0048 1.5430 326° Northwest  Level Estimated
07:38AM 50.0598 1.4858 326° Northwest  Level Estimated
07:39AM 50.1148 1.4283 326° Northwest  Level Estimated
07:40AM 50.1697 1.3708 326° Northwest  Level Estimated
07:41AM 50.2245 1.3131 326° Northwest  Level Estimated
07:42AM 50.2794 1.2553 326° Northwest  Level Estimated
07:43AM 50.3342 1.1974 326° Northwest  Level Estimated
07:44AM 50.3890 1.1393 326° Northwest  Level Estimated
07:45AM 50.4438 1.0811 326° Northwest  Level Estimated
07:46AM 50.4985 1.0228 326° Northwest  Level Estimated
07:47AM 50.5532 0.9643 326° Northwest  Level Estimated
07:48AM 50.6079 0.9057 326° Northwest  Level Estimated
07:49AM 50.6626 0.8470 326° Northwest  Level Estimated
07:50AM 50.7172 0.7881 326° Northwest  Level Estimated
07:51AM 50.7718 0.7291 326° Northwest  Level Estimated
07:52AM 50.8264 0.6699 326° Northwest  Level Estimated
07:53AM 50.8845 0.6066 326° Northwest  Level Estimated
07:54AM 50.9426 0.5432 326° Northwest  Level Estimated
07:55AM 51.0008 0.4797 325° Northwest  Level Estimated
07:56AM 51.0588 0.4159 325° Northwest  Level Estimated
07:57AM 51.1168 0.3521 325° Northwest  Level Estimated
07:58AM 51.1748 0.2880 325° Northwest  Level Estimated
07:59AM 51.2328 0.2238 325° Northwest  Level Estimated
08:00AM 51.2907 0.1594 325° Northwest  Level Estimated
08:01AM 51.3486 0.0949 325° Northwest  Level Estimated
08:02AM 51.4064 0.0302 325° Northwest  Level Estimated
08:03AM 51.4643 -0.0347 325° Northwest  Level Estimated
08:04AM 51.5220 -0.0997 325° Northwest  Level Estimated
08:05AM 51.5798 -0.1649 325° Northwest  Level Estimated
08:06AM 51.6375 -0.2303 325° Northwest  Level Estimated
08:07AM 51.6952 -0.2958 325° Northwest  Level Estimated
08:08AM 51.7528 -0.3615 325° Northwest  Level Estimated
08:09AM 51.8104 -0.4273 325° Northwest  Level Estimated
08:10AM 51.8680 -0.4934 325° Northwest  Level Estimated
08:11AM 51.9255 -0.5596 325° Northwest  Level Estimated
08:12AM 51.9830 -0.6259 325° Northwest  Level Estimated
08:13AM 52.0404 -0.6925 325° Northwest  Level Estimated
08:14AM 52.0978 -0.7592 324° Northwest  Level Estimated
08:15AM 52.1552 -0.8261 324° Northwest  Level Estimated
08:16AM 52.2125 -0.8931 324° Northwest  Level Estimated
08:17AM 52.2698 -0.9604 324° Northwest  Level Estimated
08:18AM 52.3271 -1.0278 324° Northwest  Level Estimated
08:19AM 52.3843 -1.0953 324° Northwest  Level Estimated
08:20AM 52.4415 -1.1631 324° Northwest  Level Estimated
08:21AM 52.4986 -1.2310 324° Northwest  Level Estimated
08:22AM 52.5558 -1.2991 324° Northwest  Level Estimated
08:23AM 52.6128 -1.3674 324° Northwest  Level Estimated
08:24AM 52.6698 -1.4359 324° Northwest  Level Estimated
08:25AM 52.7268 -1.5045 324° Northwest  Level Estimated
08:26AM 52.7838 -1.5733 324° Northwest  Level Estimated
08:27AM 52.8407 -1.6423 324° Northwest  Level Estimated
08:28AM 52.8976 -1.7115 324° Northwest  Level Estimated
08:29AM 52.9544 -1.7809 324° Northwest  Level Estimated
08:30AM 53.0112 -1.8504 324° Northwest  Level Estimated
08:31AM 53.0679 -1.9201 324° Northwest  Level Estimated
08:32AM 53.1246 -1.9900 324° Northwest  Level Estimated
08:33AM 53.1813 -2.0601 323° Northwest  Level Estimated
08:34AM 53.2379 -2.1304 323° Northwest  Level Estimated
08:35AM 53.2945 -2.2009 323° Northwest  Level Estimated
08:36AM 53.3510 -2.2715 323° Northwest  Level Estimated
08:37AM 53.3537 -2.2750 323° Northwest  Level Estimated
08:38AM 53.3537 -2.2750 North  Level Estimated
08:39AM 53.3537 -2.2750 North  Level Estimated
08:40AM 53.3537 -2.2750 North  Level Estimated
08:41AM 53.3537 -2.2750 North  Level Estimated
08:42AM 53.3537 -2.2750 North  Level Estimated
08:43AM 53.3537 -2.2750 North  Level Estimated
08:44AM 53.3537 -2.2750 North  Level Estimated
08:45AM 53.3537 -2.2750 North  Level Estimated